sensor_id;sensor_type;location;lat;lon;timestamp;P1;durP1;ratioP1;P2;durP2;ratioP2
84577;SDS011;74803;44.756;19.218;2024-02-04T00:02:23;67.77;;;42.47;;
84577;SDS011;74803;44.756;19.218;2024-02-04T00:04:50;67.55;;;39.63;;
84577;SDS011;74803;44.756;19.218;2024-02-04T00:07:16;79.35;;;42.05;;
84577;SDS011;74803;44.756;19.218;2024-02-04T00:09:42;68.60;;;39.85;;
84577;SDS011;74803;44.756;19.218;2024-02-04T00:12:09;76.65;;;42.60;;
84577;SDS011;74803;44.756;19.218;2024-02-04T00:17:01;75.10;;;44.10;;
84577;SDS011;74803;44.756;19.218;2024-02-04T00:19:26;71.75;;;39.95;;
84577;SDS011;74803;44.756;19.218;2024-02-04T00:21:52;84.68;;;45.85;;
84577;SDS011;74803;44.756;19.218;2024-02-04T00:24:18;79.35;;;44.65;;
84577;SDS011;74803;44.756;19.218;2024-02-04T00:26:46;78.82;;;46.42;;
84577;SDS011;74803;44.756;19.218;2024-02-04T00:29:12;73.22;;;38.15;;
84577;SDS011;74803;44.756;19.218;2024-02-04T00:31:37;75.68;;;44.03;;
84577;SDS011;74803;44.756;19.218;2024-02-04T00:34:03;78.15;;;44.47;;
84577;SDS011;74803;44.756;19.218;2024-02-04T00:36:30;64.47;;;42.22;;
84577;SDS011;74803;44.756;19.218;2024-02-04T00:38:56;57.63;;;40.03;;
84577;SDS011;74803;44.756;19.218;2024-02-04T00:41:21;71.22;;;43.72;;
84577;SDS011;74803;44.756;19.218;2024-02-04T00:43:48;59.25;;;37.20;;
84577;SDS011;74803;44.756;19.218;2024-02-04T00:46:14;58.57;;;35.20;;
84577;SDS011;74803;44.756;19.218;2024-02-04T00:48:39;65.25;;;33.38;;
84577;SDS011;74803;44.756;19.218;2024-02-04T00:51:09;47.53;;;31.00;;
84577;SDS011;74803;44.756;19.218;2024-02-04T00:53:34;59.72;;;31.95;;
84577;SDS011;74803;44.756;19.218;2024-02-04T00:56:03;53.90;;;31.77;;
84577;SDS011;74803;44.756;19.218;2024-02-04T00:58:29;53.42;;;30.88;;
84577;SDS011;74803;44.756;19.218;2024-02-04T01:00:55;49.33;;;30.60;;
84577;SDS011;74803;44.756;19.218;2024-02-04T01:03:21;48.53;;;27.35;;
84577;SDS011;74803;44.756;19.218;2024-02-04T01:05:47;57.83;;;33.05;;
84577;SDS011;74803;44.756;19.218;2024-02-04T01:08:12;45.42;;;33.00;;
84577;SDS011;74803;44.756;19.218;2024-02-04T01:10:38;46.20;;;29.25;;
84577;SDS011;74803;44.756;19.218;2024-02-04T01:13:04;54.13;;;31.73;;
84577;SDS011;74803;44.756;19.218;2024-02-04T01:15:30;70.37;;;32.83;;
84577;SDS011;74803;44.756;19.218;2024-02-04T01:17:55;48.33;;;30.67;;
84577;SDS011;74803;44.756;19.218;2024-02-04T01:20:21;53.37;;;30.17;;
84577;SDS011;74803;44.756;19.218;2024-02-04T01:22:46;32.97;;;21.08;;
84577;SDS011;74803;44.756;19.218;2024-02-04T01:25:12;41.17;;;25.90;;
84577;SDS011;74803;44.756;19.218;2024-02-04T01:27:39;45.58;;;27.00;;
84577;SDS011;74803;44.756;19.218;2024-02-04T01:30:05;42.97;;;25.70;;
84577;SDS011;74803;44.756;19.218;2024-02-04T01:32:31;43.67;;;27.40;;
84577;SDS011;74803;44.756;19.218;2024-02-04T01:34:57;43.05;;;25.20;;
84577;SDS011;74803;44.756;19.218;2024-02-04T01:37:22;45.93;;;28.63;;
84577;SDS011;74803;44.756;19.218;2024-02-04T01:39:48;37.77;;;24.23;;
84577;SDS011;74803;44.756;19.218;2024-02-04T01:42:14;39.47;;;25.33;;
84577;SDS011;74803;44.756;19.218;2024-02-04T01:44:40;30.92;;;21.13;;
84577;SDS011;74803;44.756;19.218;2024-02-04T01:47:05;40.83;;;22.13;;
84577;SDS011;74803;44.756;19.218;2024-02-04T01:49:31;36.75;;;20.45;;
84577;SDS011;74803;44.756;19.218;2024-02-04T01:51:57;37.47;;;20.70;;
84577;SDS011;74803;44.756;19.218;2024-02-04T01:54:23;36.55;;;21.55;;
84577;SDS011;74803;44.756;19.218;2024-02-04T01:56:51;29.60;;;18.45;;
84577;SDS011;74803;44.756;19.218;2024-02-04T01:59:18;36.03;;;20.48;;
84577;SDS011;74803;44.756;19.218;2024-02-04T02:01:45;38.08;;;20.48;;
84577;SDS011;74803;44.756;19.218;2024-02-04T02:04:12;29.35;;;17.67;;
84577;SDS011;74803;44.756;19.218;2024-02-04T02:06:39;38.85;;;21.58;;
84577;SDS011;74803;44.756;19.218;2024-02-04T02:09:07;37.70;;;19.50;;
84577;SDS011;74803;44.756;19.218;2024-02-04T02:11:54;33.38;;;21.30;;
84577;SDS011;74803;44.756;19.218;2024-02-04T02:14:26;26.98;;;18.73;;
84577;SDS011;74803;44.756;19.218;2024-02-04T02:16:57;36.03;;;22.48;;
84577;SDS011;74803;44.756;19.218;2024-02-04T02:24:46;31.70;;;19.13;;
84577;SDS011;74803;44.756;19.218;2024-02-04T02:27:14;38.45;;;21.17;;
84577;SDS011;74803;44.756;19.218;2024-02-04T02:29:40;29.03;;;21.00;;
84577;SDS011;74803;44.756;19.218;2024-02-04T02:32:05;31.83;;;23.27;;
84577;SDS011;74803;44.756;19.218;2024-02-04T02:34:31;37.95;;;21.17;;
84577;SDS011;74803;44.756;19.218;2024-02-04T02:36:59;41.85;;;21.17;;
84577;SDS011;74803;44.756;19.218;2024-02-04T02:39:45;34.00;;;18.13;;
84577;SDS011;74803;44.756;19.218;2024-02-04T02:42:17;35.08;;;20.23;;
84577;SDS011;74803;44.756;19.218;2024-02-04T02:44:46;30.20;;;20.38;;
84577;SDS011;74803;44.756;19.218;2024-02-04T02:49:39;36.60;;;22.38;;
84577;SDS011;74803;44.756;19.218;2024-02-04T02:52:05;38.15;;;18.58;;
84577;SDS011;74803;44.756;19.218;2024-02-04T02:54:31;32.20;;;20.83;;
84577;SDS011;74803;44.756;19.218;2024-02-04T02:56:56;29.65;;;20.10;;
84577;SDS011;74803;44.756;19.218;2024-02-04T02:59:22;37.83;;;20.13;;
84577;SDS011;74803;44.756;19.218;2024-02-04T03:01:48;32.13;;;18.02;;
84577;SDS011;74803;44.756;19.218;2024-02-04T03:04:13;39.70;;;22.73;;
84577;SDS011;74803;44.756;19.218;2024-02-04T03:06:39;27.67;;;18.42;;
84577;SDS011;74803;44.756;19.218;2024-02-04T03:09:04;41.77;;;20.23;;
84577;SDS011;74803;44.756;19.218;2024-02-04T03:11:31;32.22;;;21.20;;
84577;SDS011;74803;44.756;19.218;2024-02-04T03:13:56;31.50;;;19.50;;
84577;SDS011;74803;44.756;19.218;2024-02-04T03:16:22;32.33;;;18.58;;
84577;SDS011;74803;44.756;19.218;2024-02-04T03:18:48;34.47;;;21.73;;
84577;SDS011;74803;44.756;19.218;2024-02-04T03:21:14;31.17;;;17.02;;
84577;SDS011;74803;44.756;19.218;2024-02-04T03:23:41;32.65;;;18.95;;
84577;SDS011;74803;44.756;19.218;2024-02-04T03:26:08;28.73;;;18.48;;
84577;SDS011;74803;44.756;19.218;2024-02-04T03:28:37;28.67;;;18.52;;
84577;SDS011;74803;44.756;19.218;2024-02-04T03:33:29;32.60;;;17.77;;
84577;SDS011;74803;44.756;19.218;2024-02-04T03:35:54;24.65;;;15.65;;
84577;SDS011;74803;44.756;19.218;2024-02-04T03:38:20;26.65;;;19.38;;
84577;SDS011;74803;44.756;19.218;2024-02-04T03:40:46;28.20;;;17.58;;
84577;SDS011;74803;44.756;19.218;2024-02-04T03:43:14;27.15;;;18.27;;
84577;SDS011;74803;44.756;19.218;2024-02-04T03:45:41;28.00;;;18.27;;
84577;SDS011;74803;44.756;19.218;2024-02-04T03:48:07;26.73;;;17.20;;
84577;SDS011;74803;44.756;19.218;2024-02-04T03:50:32;33.78;;;17.35;;
84577;SDS011;74803;44.756;19.218;2024-02-04T03:52:58;20.93;;;15.50;;
84577;SDS011;74803;44.756;19.218;2024-02-04T03:55:24;27.45;;;18.05;;
84577;SDS011;74803;44.756;19.218;2024-02-04T03:57:51;28.10;;;16.58;;
84577;SDS011;74803;44.756;19.218;2024-02-04T04:00:17;26.08;;;15.80;;
84577;SDS011;74803;44.756;19.218;2024-02-04T04:02:43;24.75;;;13.88;;
84577;SDS011;74803;44.756;19.218;2024-02-04T04:05:11;28.38;;;16.60;;
84577;SDS011;74803;44.756;19.218;2024-02-04T04:07:40;28.95;;;17.98;;
84577;SDS011;74803;44.756;19.218;2024-02-04T04:10:06;30.42;;;14.70;;
84577;SDS011;74803;44.756;19.218;2024-02-04T04:12:33;27.27;;;13.63;;
84577;SDS011;74803;44.756;19.218;2024-02-04T04:14:58;29.70;;;15.43;;
84577;SDS011;74803;44.756;19.218;2024-02-04T04:17:24;29.50;;;15.87;;
84577;SDS011;74803;44.756;19.218;2024-02-04T04:19:50;28.65;;;16.35;;
84577;SDS011;74803;44.756;19.218;2024-02-04T04:22:15;26.80;;;18.00;;
84577;SDS011;74803;44.756;19.218;2024-02-04T04:24:41;36.63;;;21.57;;
84577;SDS011;74803;44.756;19.218;2024-02-04T04:27:06;25.83;;;14.70;;
84577;SDS011;74803;44.756;19.218;2024-02-04T04:29:32;27.20;;;18.48;;
84577;SDS011;74803;44.756;19.218;2024-02-04T04:31:58;33.30;;;21.00;;
84577;SDS011;74803;44.756;19.218;2024-02-04T04:34:23;37.67;;;20.88;;
84577;SDS011;74803;44.756;19.218;2024-02-04T04:36:49;37.77;;;22.63;;
84577;SDS011;74803;44.756;19.218;2024-02-04T04:39:14;51.70;;;27.40;;
84577;SDS011;74803;44.756;19.218;2024-02-04T04:41:41;44.50;;;28.52;;
84577;SDS011;74803;44.756;19.218;2024-02-04T04:44:09;38.80;;;25.65;;
84577;SDS011;74803;44.756;19.218;2024-02-04T04:46:37;34.43;;;21.37;;
84577;SDS011;74803;44.756;19.218;2024-02-04T04:49:03;34.15;;;22.17;;
84577;SDS011;74803;44.756;19.218;2024-02-04T04:51:29;32.47;;;21.88;;
84577;SDS011;74803;44.756;19.218;2024-02-04T04:53:55;33.55;;;19.13;;
84577;SDS011;74803;44.756;19.218;2024-02-04T04:56:20;32.63;;;22.33;;
84577;SDS011;74803;44.756;19.218;2024-02-04T04:58:46;54.80;;;31.87;;
84577;SDS011;74803;44.756;19.218;2024-02-04T05:01:12;45.90;;;28.87;;
84577;SDS011;74803;44.756;19.218;2024-02-04T05:03:37;56.53;;;31.67;;
84577;SDS011;74803;44.756;19.218;2024-02-04T05:06:03;39.00;;;23.90;;
84577;SDS011;74803;44.756;19.218;2024-02-04T05:08:28;36.25;;;23.25;;
84577;SDS011;74803;44.756;19.218;2024-02-04T05:10:54;39.03;;;25.67;;
84577;SDS011;74803;44.756;19.218;2024-02-04T05:13:20;36.10;;;26.65;;
84577;SDS011;74803;44.756;19.218;2024-02-04T05:15:45;41.50;;;25.50;;
84577;SDS011;74803;44.756;19.218;2024-02-04T05:18:11;37.33;;;26.33;;
84577;SDS011;74803;44.756;19.218;2024-02-04T05:20:36;44.23;;;25.33;;
84577;SDS011;74803;44.756;19.218;2024-02-04T05:23:02;37.25;;;23.67;;
84577;SDS011;74803;44.756;19.218;2024-02-04T05:25:28;51.38;;;31.48;;
84577;SDS011;74803;44.756;19.218;2024-02-04T05:27:53;46.75;;;26.60;;
84577;SDS011;74803;44.756;19.218;2024-02-04T05:30:19;39.17;;;25.83;;
84577;SDS011;74803;44.756;19.218;2024-02-04T05:32:44;39.33;;;25.48;;
84577;SDS011;74803;44.756;19.218;2024-02-04T05:35:10;47.67;;;29.42;;
84577;SDS011;74803;44.756;19.218;2024-02-04T05:37:36;49.00;;;29.50;;
84577;SDS011;74803;44.756;19.218;2024-02-04T05:40:02;46.65;;;32.08;;
84577;SDS011;74803;44.756;19.218;2024-02-04T05:42:28;48.60;;;29.15;;
84577;SDS011;74803;44.756;19.218;2024-02-04T05:44:54;44.65;;;29.17;;
84577;SDS011;74803;44.756;19.218;2024-02-04T05:47:20;43.00;;;27.35;;
84577;SDS011;74803;44.756;19.218;2024-02-04T05:49:45;42.00;;;25.07;;
84577;SDS011;74803;44.756;19.218;2024-02-04T05:52:11;49.58;;;31.52;;
84577;SDS011;74803;44.756;19.218;2024-02-04T05:54:37;56.42;;;30.33;;
84577;SDS011;74803;44.756;19.218;2024-02-04T05:57:04;77.10;;;41.40;;
84577;SDS011;74803;44.756;19.218;2024-02-04T05:59:31;129.20;;;72.80;;
84577;SDS011;74803;44.756;19.218;2024-02-04T06:01:56;161.47;;;80.40;;
84577;SDS011;74803;44.756;19.218;2024-02-04T06:04:22;95.40;;;51.30;;
84577;SDS011;74803;44.756;19.218;2024-02-04T06:06:47;108.60;;;57.70;;
84577;SDS011;74803;44.756;19.218;2024-02-04T06:09:13;82.87;;;50.97;;
84577;SDS011;74803;44.756;19.218;2024-02-04T06:11:39;64.60;;;42.15;;
84577;SDS011;74803;44.756;19.218;2024-02-04T06:14:04;49.13;;;29.60;;
84577;SDS011;74803;44.756;19.218;2024-02-04T06:16:31;53.47;;;32.58;;
84577;SDS011;74803;44.756;19.218;2024-02-04T06:18:59;61.60;;;38.72;;
84577;SDS011;74803;44.756;19.218;2024-02-04T06:21:25;44.13;;;26.38;;
84577;SDS011;74803;44.756;19.218;2024-02-04T06:23:51;41.60;;;21.08;;
84577;SDS011;74803;44.756;19.218;2024-02-04T06:26:16;26.58;;;18.55;;
84577;SDS011;74803;44.756;19.218;2024-02-04T06:28:42;27.47;;;17.10;;
84577;SDS011;74803;44.756;19.218;2024-02-04T06:31:11;27.08;;;18.05;;
84577;SDS011;74803;44.756;19.218;2024-02-04T06:33:39;27.20;;;18.45;;
84577;SDS011;74803;44.756;19.218;2024-02-04T06:36:08;27.63;;;18.20;;
84577;SDS011;74803;44.756;19.218;2024-02-04T06:38:35;30.45;;;18.63;;
84577;SDS011;74803;44.756;19.218;2024-02-04T06:41:01;36.90;;;21.20;;
84577;SDS011;74803;44.756;19.218;2024-02-04T06:43:26;36.63;;;23.90;;
84577;SDS011;74803;44.756;19.218;2024-02-04T06:45:52;43.13;;;27.40;;
84577;SDS011;74803;44.756;19.218;2024-02-04T06:48:21;55.37;;;35.73;;
84577;SDS011;74803;44.756;19.218;2024-02-04T06:50:46;59.42;;;39.25;;
84577;SDS011;74803;44.756;19.218;2024-02-04T06:55:41;52.17;;;32.75;;
84577;SDS011;74803;44.756;19.218;2024-02-04T06:58:07;54.25;;;31.75;;
84577;SDS011;74803;44.756;19.218;2024-02-04T07:00:32;53.93;;;29.83;;
84577;SDS011;74803;44.756;19.218;2024-02-04T07:02:58;56.57;;;33.27;;
84577;SDS011;74803;44.756;19.218;2024-02-04T07:05:24;51.53;;;35.05;;
84577;SDS011;74803;44.756;19.218;2024-02-04T07:07:50;51.42;;;31.35;;
84577;SDS011;74803;44.756;19.218;2024-02-04T07:10:16;44.23;;;28.67;;
84577;SDS011;74803;44.756;19.218;2024-02-04T07:12:42;32.90;;;21.70;;
84577;SDS011;74803;44.756;19.218;2024-02-04T07:15:07;45.15;;;26.58;;
84577;SDS011;74803;44.756;19.218;2024-02-04T07:17:33;41.53;;;25.05;;
84577;SDS011;74803;44.756;19.218;2024-02-04T07:20:00;41.83;;;25.58;;
84577;SDS011;74803;44.756;19.218;2024-02-04T07:22:26;39.10;;;26.30;;
84577;SDS011;74803;44.756;19.218;2024-02-04T07:24:52;40.92;;;28.70;;
84577;SDS011;74803;44.756;19.218;2024-02-04T07:27:18;44.33;;;26.23;;
84577;SDS011;74803;44.756;19.218;2024-02-04T07:29:43;45.50;;;30.05;;
84577;SDS011;74803;44.756;19.218;2024-02-04T07:32:09;62.80;;;32.97;;
84577;SDS011;74803;44.756;19.218;2024-02-04T07:34:34;48.53;;;29.33;;
84577;SDS011;74803;44.756;19.218;2024-02-04T07:37:00;37.50;;;24.02;;
84577;SDS011;74803;44.756;19.218;2024-02-04T07:39:26;42.97;;;25.70;;
84577;SDS011;74803;44.756;19.218;2024-02-04T07:41:53;49.08;;;30.40;;
84577;SDS011;74803;44.756;19.218;2024-02-04T07:44:21;51.58;;;32.35;;
84577;SDS011;74803;44.756;19.218;2024-02-04T07:46:49;61.03;;;32.25;;
84577;SDS011;74803;44.756;19.218;2024-02-04T07:49:15;49.60;;;32.40;;
84577;SDS011;74803;44.756;19.218;2024-02-04T07:51:40;63.77;;;34.17;;
84577;SDS011;74803;44.756;19.218;2024-02-04T07:54:06;54.90;;;32.92;;
84577;SDS011;74803;44.756;19.218;2024-02-04T07:56:31;70.37;;;34.70;;
84577;SDS011;74803;44.756;19.218;2024-02-04T07:58:57;45.17;;;28.80;;
84577;SDS011;74803;44.756;19.218;2024-02-04T08:01:22;45.90;;;28.53;;
84577;SDS011;74803;44.756;19.218;2024-02-04T08:03:49;49.05;;;28.58;;
84577;SDS011;74803;44.756;19.218;2024-02-04T08:06:14;63.83;;;36.97;;
84577;SDS011;74803;44.756;19.218;2024-02-04T08:08:40;48.60;;;30.60;;
84577;SDS011;74803;44.756;19.218;2024-02-04T08:11:07;55.50;;;30.23;;
84577;SDS011;74803;44.756;19.218;2024-02-04T08:13:33;53.42;;;32.15;;
84577;SDS011;74803;44.756;19.218;2024-02-04T08:15:58;74.82;;;44.55;;
84577;SDS011;74803;44.756;19.218;2024-02-04T08:18:24;65.22;;;43.03;;
84577;SDS011;74803;44.756;19.218;2024-02-04T08:20:50;55.77;;;33.50;;
84577;SDS011;74803;44.756;19.218;2024-02-04T08:23:15;58.60;;;38.33;;
84577;SDS011;74803;44.756;19.218;2024-02-04T08:25:41;54.92;;;35.67;;
84577;SDS011;74803;44.756;19.218;2024-02-04T08:28:07;57.63;;;37.75;;
84577;SDS011;74803;44.756;19.218;2024-02-04T08:30:32;49.73;;;35.20;;
84577;SDS011;74803;44.756;19.218;2024-02-04T08:32:58;51.22;;;33.92;;
84577;SDS011;74803;44.756;19.218;2024-02-04T08:35:23;47.93;;;25.90;;
84577;SDS011;74803;44.756;19.218;2024-02-04T08:37:49;44.33;;;30.20;;
84577;SDS011;74803;44.756;19.218;2024-02-04T08:40:14;43.60;;;25.93;;
84577;SDS011;74803;44.756;19.218;2024-02-04T08:42:40;43.45;;;28.42;;
84577;SDS011;74803;44.756;19.218;2024-02-04T08:45:07;39.92;;;27.15;;
84577;SDS011;74803;44.756;19.218;2024-02-04T08:47:36;43.03;;;24.25;;
84577;SDS011;74803;44.756;19.218;2024-02-04T08:50:03;52.88;;;31.90;;
84577;SDS011;74803;44.756;19.218;2024-02-04T08:52:29;49.95;;;31.23;;
84577;SDS011;74803;44.756;19.218;2024-02-04T08:54:55;35.95;;;23.55;;
84577;SDS011;74803;44.756;19.218;2024-02-04T08:57:21;36.28;;;25.63;;
84577;SDS011;74803;44.756;19.218;2024-02-04T08:59:47;41.83;;;27.80;;
84577;SDS011;74803;44.756;19.218;2024-02-04T09:02:13;56.00;;;36.95;;
84577;SDS011;74803;44.756;19.218;2024-02-04T09:04:38;64.63;;;40.73;;
84577;SDS011;74803;44.756;19.218;2024-02-04T09:07:06;46.42;;;28.15;;
84577;SDS011;74803;44.756;19.218;2024-02-04T09:09:32;31.27;;;19.77;;
84577;SDS011;74803;44.756;19.218;2024-02-04T09:11:58;38.25;;;23.85;;
84577;SDS011;74803;44.756;19.218;2024-02-04T09:14:24;52.25;;;31.45;;
84577;SDS011;74803;44.756;19.218;2024-02-04T09:16:49;47.63;;;30.50;;
84577;SDS011;74803;44.756;19.218;2024-02-04T09:19:15;42.00;;;26.67;;
84577;SDS011;74803;44.756;19.218;2024-02-04T09:21:40;32.47;;;21.77;;
84577;SDS011;74803;44.756;19.218;2024-02-04T09:26:33;43.50;;;27.05;;
84577;SDS011;74803;44.756;19.218;2024-02-04T09:31:24;27.33;;;20.08;;
84577;SDS011;74803;44.756;19.218;2024-02-04T09:33:50;25.08;;;18.90;;
84577;SDS011;74803;44.756;19.218;2024-02-04T09:36:15;30.27;;;19.05;;
84577;SDS011;74803;44.756;19.218;2024-02-04T09:38:41;35.65;;;25.92;;
84577;SDS011;74803;44.756;19.218;2024-02-04T09:41:07;31.50;;;23.15;;
84577;SDS011;74803;44.756;19.218;2024-02-04T09:43:32;34.85;;;25.25;;
84577;SDS011;74803;44.756;19.218;2024-02-04T09:46:00;33.80;;;26.38;;
84577;SDS011;74803;44.756;19.218;2024-02-04T09:48:26;37.97;;;28.55;;
84577;SDS011;74803;44.756;19.218;2024-02-04T09:50:57;34.42;;;28.40;;
84577;SDS011;74803;44.756;19.218;2024-02-04T09:53:26;42.22;;;29.00;;
84577;SDS011;74803;44.756;19.218;2024-02-04T09:55:58;31.23;;;24.27;;
84577;SDS011;74803;44.756;19.218;2024-02-04T09:58:27;33.83;;;24.83;;
84577;SDS011;74803;44.756;19.218;2024-02-04T10:00:53;30.33;;;23.10;;
84577;SDS011;74803;44.756;19.218;2024-02-04T10:03:19;55.50;;;28.08;;
84577;SDS011;74803;44.756;19.218;2024-02-04T10:05:46;25.42;;;21.30;;
84577;SDS011;74803;44.756;19.218;2024-02-04T10:08:12;30.67;;;24.15;;
84577;SDS011;74803;44.756;19.218;2024-02-04T10:10:39;27.70;;;21.95;;
84577;SDS011;74803;44.756;19.218;2024-02-04T10:13:08;25.27;;;17.65;;
84577;SDS011;74803;44.756;19.218;2024-02-04T10:15:35;22.75;;;18.45;;
84577;SDS011;74803;44.756;19.218;2024-02-04T10:18:05;30.67;;;19.75;;
84577;SDS011;74803;44.756;19.218;2024-02-04T10:20:33;23.27;;;15.68;;
84577;SDS011;74803;44.756;19.218;2024-02-04T10:22:59;28.67;;;18.58;;
84577;SDS011;74803;44.756;19.218;2024-02-04T10:25:25;21.08;;;15.70;;
84577;SDS011;74803;44.756;19.218;2024-02-04T10:27:54;19.63;;;15.90;;
84577;SDS011;74803;44.756;19.218;2024-02-04T10:30:20;24.13;;;16.63;;
84577;SDS011;74803;44.756;19.218;2024-02-04T10:35:17;24.90;;;15.10;;
84577;SDS011;74803;44.756;19.218;2024-02-04T10:37:49;21.23;;;16.33;;
84577;SDS011;74803;44.756;19.218;2024-02-04T10:40:15;17.45;;;13.10;;
84577;SDS011;74803;44.756;19.218;2024-02-04T10:42:42;30.67;;;16.13;;
84577;SDS011;74803;44.756;19.218;2024-02-04T10:45:09;26.52;;;16.92;;
84577;SDS011;74803;44.756;19.218;2024-02-04T10:47:38;23.70;;;15.60;;
84577;SDS011;74803;44.756;19.218;2024-02-04T10:50:06;29.63;;;22.58;;
84577;SDS011;74803;44.756;19.218;2024-02-04T10:52:37;28.08;;;19.75;;
84577;SDS011;74803;44.756;19.218;2024-02-04T10:55:09;24.80;;;17.80;;
84577;SDS011;74803;44.756;19.218;2024-02-04T10:57:39;22.13;;;15.90;;
84577;SDS011;74803;44.756;19.218;2024-02-04T11:00:05;27.58;;;21.13;;
84577;SDS011;74803;44.756;19.218;2024-02-04T11:02:35;16.50;;;14.70;;
84577;SDS011;74803;44.756;19.218;2024-02-04T11:05:02;16.08;;;11.90;;
84577;SDS011;74803;44.756;19.218;2024-02-04T11:07:31;15.07;;;11.13;;
84577;SDS011;74803;44.756;19.218;2024-02-04T11:10:02;17.25;;;12.45;;
84577;SDS011;74803;44.756;19.218;2024-02-04T11:14:54;18.83;;;14.63;;
84577;SDS011;74803;44.756;19.218;2024-02-04T11:26:31;16.38;;;11.52;;
84577;SDS011;74803;44.756;19.218;2024-02-04T11:28:57;21.08;;;14.27;;
84577;SDS011;74803;44.756;19.218;2024-02-04T11:31:23;14.95;;;9.30;;
84577;SDS011;74803;44.756;19.218;2024-02-04T11:33:54;11.18;;;9.18;;
84577;SDS011;74803;44.756;19.218;2024-02-04T11:36:23;10.20;;;7.78;;
84577;SDS011;74803;44.756;19.218;2024-02-04T11:38:50;12.50;;;9.75;;
84577;SDS011;74803;44.756;19.218;2024-02-04T11:41:22;11.60;;;9.20;;
84577;SDS011;74803;44.756;19.218;2024-02-04T11:43:52;12.48;;;9.40;;
84577;SDS011;74803;44.756;19.218;2024-02-04T11:46:21;8.70;;;6.80;;
84577;SDS011;74803;44.756;19.218;2024-02-04T11:48:53;11.77;;;6.65;;
84577;SDS011;74803;44.756;19.218;2024-02-04T11:51:22;7.60;;;5.35;;
84577;SDS011;74803;44.756;19.218;2024-02-04T11:53:51;7.05;;;4.75;;
84577;SDS011;74803;44.756;19.218;2024-02-04T11:56:20;11.00;;;8.05;;
84577;SDS011;74803;44.756;19.218;2024-02-04T11:59:03;12.63;;;7.93;;
84577;SDS011;74803;44.756;19.218;2024-02-04T12:03:56;11.10;;;7.22;;
84577;SDS011;74803;44.756;19.218;2024-02-04T12:06:22;12.85;;;7.18;;
84577;SDS011;74803;44.756;19.218;2024-02-04T12:08:47;12.90;;;7.00;;
84577;SDS011;74803;44.756;19.218;2024-02-04T12:11:16;11.07;;;8.55;;
84577;SDS011;74803;44.756;19.218;2024-02-04T12:13:43;12.25;;;8.45;;
84577;SDS011;74803;44.756;19.218;2024-02-04T12:16:10;14.70;;;10.27;;
84577;SDS011;74803;44.756;19.218;2024-02-04T12:18:47;14.65;;;8.27;;
84577;SDS011;74803;44.756;19.218;2024-02-04T12:21:19;11.73;;;6.88;;
84577;SDS011;74803;44.756;19.218;2024-02-04T12:23:46;7.57;;;6.50;;
84577;SDS011;74803;44.756;19.218;2024-02-04T12:26:12;10.18;;;6.63;;
84577;SDS011;74803;44.756;19.218;2024-02-04T12:28:40;6.10;;;4.85;;
84577;SDS011;74803;44.756;19.218;2024-02-04T12:31:06;8.48;;;4.00;;
84577;SDS011;74803;44.756;19.218;2024-02-04T12:33:33;7.78;;;5.03;;
84577;SDS011;74803;44.756;19.218;2024-02-04T12:38:27;7.43;;;4.38;;
84577;SDS011;74803;44.756;19.218;2024-02-04T12:43:27;5.90;;;4.07;;
84577;SDS011;74803;44.756;19.218;2024-02-04T12:48:21;5.43;;;3.72;;
84577;SDS011;74803;44.756;19.218;2024-02-04T12:50:48;7.53;;;5.90;;
84577;SDS011;74803;44.756;19.218;2024-02-04T12:53:14;6.78;;;4.78;;
84577;SDS011;74803;44.756;19.218;2024-02-04T12:55:40;5.07;;;3.80;;
84577;SDS011;74803;44.756;19.218;2024-02-04T12:58:09;5.80;;;4.45;;
84577;SDS011;74803;44.756;19.218;2024-02-04T13:00:44;7.13;;;4.28;;
84577;SDS011;74803;44.756;19.218;2024-02-04T13:03:14;9.82;;;4.43;;
84577;SDS011;74803;44.756;19.218;2024-02-04T13:05:41;6.07;;;4.78;;
84577;SDS011;74803;44.756;19.218;2024-02-04T13:08:07;4.82;;;3.63;;
84577;SDS011;74803;44.756;19.218;2024-02-04T13:10:37;5.22;;;3.60;;
84577;SDS011;74803;44.756;19.218;2024-02-04T13:13:06;5.50;;;3.75;;
84577;SDS011;74803;44.756;19.218;2024-02-04T13:15:44;5.78;;;3.90;;
84577;SDS011;74803;44.756;19.218;2024-02-04T13:18:10;5.57;;;3.45;;
84577;SDS011;74803;44.756;19.218;2024-02-04T13:20:42;5.90;;;3.67;;
84577;SDS011;74803;44.756;19.218;2024-02-04T13:23:08;6.25;;;3.80;;
84577;SDS011;74803;44.756;19.218;2024-02-04T13:25:34;5.85;;;3.70;;
84577;SDS011;74803;44.756;19.218;2024-02-04T13:30:29;9.90;;;5.35;;
84577;SDS011;74803;44.756;19.218;2024-02-04T13:32:55;7.72;;;5.15;;
84577;SDS011;74803;44.756;19.218;2024-02-04T13:35:22;7.95;;;5.28;;
84577;SDS011;74803;44.756;19.218;2024-02-04T13:37:49;8.30;;;4.95;;
84577;SDS011;74803;44.756;19.218;2024-02-04T13:40:20;6.80;;;4.28;;
84577;SDS011;74803;44.756;19.218;2024-02-04T13:42:48;10.07;;;4.85;;
84577;SDS011;74803;44.756;19.218;2024-02-04T13:45:13;6.93;;;4.50;;
84577;SDS011;74803;44.756;19.218;2024-02-04T13:47:48;5.78;;;3.78;;
84577;SDS011;74803;44.756;19.218;2024-02-04T13:50:14;5.03;;;3.50;;
84577;SDS011;74803;44.756;19.218;2024-02-04T13:52:39;7.75;;;5.30;;
84577;SDS011;74803;44.756;19.218;2024-02-04T13:55:05;6.97;;;5.68;;
84577;SDS011;74803;44.756;19.218;2024-02-04T13:57:33;8.75;;;5.00;;
84577;SDS011;74803;44.756;19.218;2024-02-04T14:02:24;8.68;;;3.83;;
84577;SDS011;74803;44.756;19.218;2024-02-04T14:04:51;6.05;;;4.10;;
84577;SDS011;74803;44.756;19.218;2024-02-04T14:07:18;7.57;;;4.93;;
84577;SDS011;74803;44.756;19.218;2024-02-04T14:12:11;5.18;;;3.63;;
84577;SDS011;74803;44.756;19.218;2024-02-04T14:14:38;8.20;;;5.60;;
84577;SDS011;74803;44.756;19.218;2024-02-04T14:17:04;8.40;;;5.78;;
84577;SDS011;74803;44.756;19.218;2024-02-04T14:19:30;7.85;;;5.28;;
84577;SDS011;74803;44.756;19.218;2024-02-04T14:21:55;6.57;;;4.00;;
84577;SDS011;74803;44.756;19.218;2024-02-04T14:24:21;6.35;;;3.97;;
84577;SDS011;74803;44.756;19.218;2024-02-04T14:29:13;8.23;;;4.28;;
84577;SDS011;74803;44.756;19.218;2024-02-04T14:31:40;7.70;;;4.93;;
84577;SDS011;74803;44.756;19.218;2024-02-04T14:34:06;7.80;;;4.85;;
84577;SDS011;74803;44.756;19.218;2024-02-04T14:38:57;6.50;;;4.20;;
84577;SDS011;74803;44.756;19.218;2024-02-04T14:41:23;5.38;;;3.97;;
84577;SDS011;74803;44.756;19.218;2024-02-04T14:43:49;8.25;;;6.15;;
84577;SDS011;74803;44.756;19.218;2024-02-04T14:48:40;10.77;;;7.32;;
84577;SDS011;74803;44.756;19.218;2024-02-04T14:53:31;10.05;;;6.03;;
84577;SDS011;74803;44.756;19.218;2024-02-04T14:55:57;6.55;;;5.25;;
84577;SDS011;74803;44.756;19.218;2024-02-04T14:58:23;9.10;;;5.18;;
84577;SDS011;74803;44.756;19.218;2024-02-04T15:00:49;7.90;;;5.30;;
84577;SDS011;74803;44.756;19.218;2024-02-04T15:03:16;8.90;;;6.18;;
84577;SDS011;74803;44.756;19.218;2024-02-04T15:05:43;9.93;;;6.38;;
84577;SDS011;74803;44.756;19.218;2024-02-04T15:08:09;8.30;;;5.75;;
84577;SDS011;74803;44.756;19.218;2024-02-04T15:10:34;11.82;;;7.75;;
84577;SDS011;74803;44.756;19.218;2024-02-04T15:13:00;11.55;;;8.70;;